Aérodrome :
LOGIN :

S'inscrire | Disclaimer

   EN    FR    IT 

 










Légende :    VFR   VFR Marginal   IFR   IFR Intensif   IFR Très Intensif
Visi : 
Plafond : 
>= 8 km
>= 3000ft
5 à 8 km
1000 à 3000 ft
1500m à 5 km
500 à 1000 ft
800 à 1500m
200 à 500 ft
< 800m
< 200 ft
Symboles :   Orages  Brouillard  Fortes neiges  Fortes précipitations  Vent > 20 kt
SIGMETs :   Divers  Orages  Givrage  Turbulence  Onde Orograph.  Cendres Volcan.







- Altitude de l'aérodrome : 659 ft
- Code IATA : LYN
- Voir les cartes d'approche


LFLY - Lyon Bron

DERNIER METAR :
  • 180800Z AUTO 16009KT CAVOK 09/03 Q1022 NOSIG

METARs EXPIRÉS :
  • 180730Z AUTO 14006KT 110V170 CAVOK 07/03 Q1022 NOSIG
  • 180700Z AUTO 12003KT 080V170 CAVOK 06/02 Q1022 NOSIG
  • 180630Z AUTO 10003KT 050V160 CAVOK 05/02 Q1022 NOSIG
  • 180600Z AUTO VRB03KT CAVOK 06/01 Q1022 NOSIG
  • 180530Z AUTO VRB03KT CAVOK 06/01 Q1022 NOSIG
  • 180500Z AUTO 15004KT 090V190 CAVOK 06/02 Q1022 NOSIG

TAF TAF LFLY
Valide du 18 à 06h jusqu'au 19 à 06h UTC


180500Z 1806/1906 15005KT CAVOK
BECMG 1806/1809 18012KT
TEMPO 1812/1817 18015G25KT
BECMG 1820/1824 14005KT
ATIS : +33 4 72 15 87 96
Pas de NOTAMs connus pour ce terrain.



MET'MAP, la Météo Aéronautique d'un coup d'oeil ! - Copyright ORBIFLY Décembre 2007 - Disclaimer

ORBIFLY MET'MAP TEAM :

Programmation & Développement : Alexandra Zaïnal
Conception & Développement : Baudouin d'Aumeries
Co-Programmation & Développement : Marc-Olivier Méhu
Soutien technique & logistique : Manuel Goepfert

Contact : metmap@orbifly.com




SOURCES & CREDITS :

   NOAA